sensor_id;sensor_type;location;lat;lon;timestamp;temperature;humidity
34873;DHT22;21084;51.098;14.506;2023-07-20T00:00:37;14.80;99.90
34873;DHT22;21084;51.098;14.506;2023-07-20T00:03:10;14.80;99.90
34873;DHT22;21084;51.098;14.506;2023-07-20T00:05:45;14.90;99.90
34873;DHT22;21084;51.098;14.506;2023-07-20T00:08:14;14.90;99.90
34873;DHT22;21084;51.098;14.506;2023-07-20T00:10:43;14.90;99.90
34873;DHT22;21084;51.098;14.506;2023-07-20T00:13:13;15.00;99.90
34873;DHT22;21084;51.098;14.506;2023-07-20T00:15:43;15.00;99.90
34873;DHT22;21084;51.098;14.506;2023-07-20T00:18:11;15.10;99.90
34873;DHT22;21084;51.098;14.506;2023-07-20T00:20:40;15.10;99.90
34873;DHT22;21084;51.098;14.506;2023-07-20T00:23:10;15.10;99.90
34873;DHT22;21084;51.098;14.506;2023-07-20T00:25:39;15.10;99.90
34873;DHT22;21084;51.098;14.506;2023-07-20T00:28:08;15.10;99.90
34873;DHT22;21084;51.098;14.506;2023-07-20T00:30:38;15.20;99.90
34873;DHT22;21084;51.098;14.506;2023-07-20T00:33:09;15.20;99.90
34873;DHT22;21084;51.098;14.506;2023-07-20T00:35:38;15.20;99.90
34873;DHT22;21084;51.098;14.506;2023-07-20T00:38:07;15.20;99.90
34873;DHT22;21084;51.098;14.506;2023-07-20T00:40:37;15.20;99.90
34873;DHT22;21084;51.098;14.506;2023-07-20T00:43:06;15.30;99.90
34873;DHT22;21084;51.098;14.506;2023-07-20T00:45:36;15.30;99.90
34873;DHT22;21084;51.098;14.506;2023-07-20T00:48:06;15.30;99.90
34873;DHT22;21084;51.098;14.506;2023-07-20T00:50:35;15.40;99.90
34873;DHT22;21084;51.098;14.506;2023-07-20T00:53:04;15.50;99.90
34873;DHT22;21084;51.098;14.506;2023-07-20T00:55:34;15.50;99.90
34873;DHT22;21084;51.098;14.506;2023-07-20T00:58:04;15.50;99.90
34873;DHT22;21084;51.098;14.506;2023-07-20T01:00:34;15.50;99.90
34873;DHT22;21084;51.098;14.506;2023-07-20T01:03:02;15.50;99.90
34873;DHT22;21084;51.098;14.506;2023-07-20T01:05:37;15.50;99.90
34873;DHT22;21084;51.098;14.506;2023-07-20T01:08:12;15.50;99.90
34873;DHT22;21084;51.098;14.506;2023-07-20T01:10:48;15.50;99.90
34873;DHT22;21084;51.098;14.506;2023-07-20T01:13:20;15.40;99.90
34873;DHT22;21084;51.098;14.506;2023-07-20T01:15:50;15.40;99.90
34873;DHT22;21084;51.098;14.506;2023-07-20T01:18:19;15.40;99.90
34873;DHT22;21084;51.098;14.506;2023-07-20T01:20:47;15.40;99.90
34873;DHT22;21084;51.098;14.506;2023-07-20T01:23:32;15.40;99.90
34873;DHT22;21084;51.098;14.506;2023-07-20T01:26:17;15.30;99.90
34873;DHT22;21084;51.098;14.506;2023-07-20T01:29:11;15.30;99.90
34873;DHT22;21084;51.098;14.506;2023-07-20T01:31:44;15.20;99.90
34873;DHT22;21084;51.098;14.506;2023-07-20T01:34:14;15.10;99.90
34873;DHT22;21084;51.098;14.506;2023-07-20T01:36:46;15.10;99.90
34873;DHT22;21084;51.098;14.506;2023-07-20T01:39:16;15.00;99.90
34873;DHT22;21084;51.098;14.506;2023-07-20T01:41:46;15.00;99.90
34873;DHT22;21084;51.098;14.506;2023-07-20T01:44:15;15.00;99.90
34873;DHT22;21084;51.098;14.506;2023-07-20T01:46:45;15.00;99.90
34873;DHT22;21084;51.098;14.506;2023-07-20T01:49:13;15.00;99.90
34873;DHT22;21084;51.098;14.506;2023-07-20T01:51:42;14.90;99.90
34873;DHT22;21084;51.098;14.506;2023-07-20T01:54:11;14.90;99.90
34873;DHT22;21084;51.098;14.506;2023-07-20T01:56:39;14.90;99.90
34873;DHT22;21084;51.098;14.506;2023-07-20T01:59:08;14.90;99.90
34873;DHT22;21084;51.098;14.506;2023-07-20T02:01:36;14.90;99.90
34873;DHT22;21084;51.098;14.506;2023-07-20T02:04:06;14.80;99.90
34873;DHT22;21084;51.098;14.506;2023-07-20T02:06:35;14.90;99.90
34873;DHT22;21084;51.098;14.506;2023-07-20T02:09:03;14.80;99.90
34873;DHT22;21084;51.098;14.506;2023-07-20T02:11:32;14.80;99.90
34873;DHT22;21084;51.098;14.506;2023-07-20T02:14:00;14.80;99.90
34873;DHT22;21084;51.098;14.506;2023-07-20T02:16:29;14.70;99.90
34873;DHT22;21084;51.098;14.506;2023-07-20T02:18:57;14.60;99.90
34873;DHT22;21084;51.098;14.506;2023-07-20T02:21:27;14.60;99.90
34873;DHT22;21084;51.098;14.506;2023-07-20T02:23:56;14.50;99.90
34873;DHT22;21084;51.098;14.506;2023-07-20T02:26:24;14.40;99.90
34873;DHT22;21084;51.098;14.506;2023-07-20T02:28:52;14.40;99.90
34873;DHT22;21084;51.098;14.506;2023-07-20T02:31:21;14.30;99.90
34873;DHT22;21084;51.098;14.506;2023-07-20T02:33:50;14.20;99.90
34873;DHT22;21084;51.098;14.506;2023-07-20T02:36:19;14.20;99.90
34873;DHT22;21084;51.098;14.506;2023-07-20T02:38:49;14.10;99.90
34873;DHT22;21084;51.098;14.506;2023-07-20T02:41:17;14.00;99.90
34873;DHT22;21084;51.098;14.506;2023-07-20T02:43:46;14.00;99.90
34873;DHT22;21084;51.098;14.506;2023-07-20T02:46:14;13.90;99.90
34873;DHT22;21084;51.098;14.506;2023-07-20T02:48:43;13.90;99.90
34873;DHT22;21084;51.098;14.506;2023-07-20T02:51:12;13.80;99.90
34873;DHT22;21084;51.098;14.506;2023-07-20T02:53:40;13.70;99.90
34873;DHT22;21084;51.098;14.506;2023-07-20T02:56:11;13.70;99.90
34873;DHT22;21084;51.098;14.506;2023-07-20T02:58:41;13.60;99.90
34873;DHT22;21084;51.098;14.506;2023-07-20T03:01:13;13.60;99.90
34873;DHT22;21084;51.098;14.506;2023-07-20T03:03:42;13.50;99.90
34873;DHT22;21084;51.098;14.506;2023-07-20T03:06:14;13.50;99.90
34873;DHT22;21084;51.098;14.506;2023-07-20T03:08:43;13.50;99.90
34873;DHT22;21084;51.098;14.506;2023-07-20T03:11:16;13.50;99.90
34873;DHT22;21084;51.098;14.506;2023-07-20T03:13:45;13.40;99.90
34873;DHT22;21084;51.098;14.506;2023-07-20T03:16:17;13.40;99.90
34873;DHT22;21084;51.098;14.506;2023-07-20T03:18:46;13.40;99.90
34873;DHT22;21084;51.098;14.506;2023-07-20T03:21:15;13.40;99.90
34873;DHT22;21084;51.098;14.506;2023-07-20T03:23:44;13.50;99.90
34873;DHT22;21084;51.098;14.506;2023-07-20T03:26:13;13.50;99.90
34873;DHT22;21084;51.098;14.506;2023-07-20T03:28:43;13.60;99.90
34873;DHT22;21084;51.098;14.506;2023-07-20T03:31:11;13.70;99.90
34873;DHT22;21084;51.098;14.506;2023-07-20T03:33:39;13.80;99.90
34873;DHT22;21084;51.098;14.506;2023-07-20T03:36:09;13.90;99.90
34873;DHT22;21084;51.098;14.506;2023-07-20T03:38:38;13.90;99.90
34873;DHT22;21084;51.098;14.506;2023-07-20T03:41:06;14.00;99.90
34873;DHT22;21084;51.098;14.506;2023-07-20T03:43:36;14.00;99.90
34873;DHT22;21084;51.098;14.506;2023-07-20T03:46:06;14.10;99.90
34873;DHT22;21084;51.098;14.506;2023-07-20T03:48:34;14.00;99.90
34873;DHT22;21084;51.098;14.506;2023-07-20T03:51:03;14.10;99.90
34873;DHT22;21084;51.098;14.506;2023-07-20T03:53:31;14.10;99.90
34873;DHT22;21084;51.098;14.506;2023-07-20T03:56:00;14.10;99.90
34873;DHT22;21084;51.098;14.506;2023-07-20T03:58:28;14.20;99.90
34873;DHT22;21084;51.098;14.506;2023-07-20T04:00:58;14.30;99.90
34873;DHT22;21084;51.098;14.506;2023-07-20T04:03:28;14.40;99.90
34873;DHT22;21084;51.098;14.506;2023-07-20T04:05:57;14.40;99.90
34873;DHT22;21084;51.098;14.506;2023-07-20T04:08:25;14.50;99.90
34873;DHT22;21084;51.098;14.506;2023-07-20T04:10:54;14.60;99.90
34873;DHT22;21084;51.098;14.506;2023-07-20T04:13:23;14.70;99.90
34873;DHT22;21084;51.098;14.506;2023-07-20T04:15:51;14.80;99.90
34873;DHT22;21084;51.098;14.506;2023-07-20T04:18:20;14.80;99.90
34873;DHT22;21084;51.098;14.506;2023-07-20T04:20:50;14.80;99.90
34873;DHT22;21084;51.098;14.506;2023-07-20T04:23:18;14.80;99.90
34873;DHT22;21084;51.098;14.506;2023-07-20T04:25:47;14.90;99.90
34873;DHT22;21084;51.098;14.506;2023-07-20T04:28:16;14.90;99.90
34873;DHT22;21084;51.098;14.506;2023-07-20T04:30:44;14.80;99.90
34873;DHT22;21084;51.098;14.506;2023-07-20T04:33:13;14.90;99.90
34873;DHT22;21084;51.098;14.506;2023-07-20T04:35:46;14.80;99.90
34873;DHT22;21084;51.098;14.506;2023-07-20T04:38:17;14.70;99.90
34873;DHT22;21084;51.098;14.506;2023-07-20T04:40:46;14.70;99.90
34873;DHT22;21084;51.098;14.506;2023-07-20T04:43:15;14.80;99.90
34873;DHT22;21084;51.098;14.506;2023-07-20T04:45:44;14.90;99.90
34873;DHT22;21084;51.098;14.506;2023-07-20T04:48:14;14.90;99.90
34873;DHT22;21084;51.098;14.506;2023-07-20T04:50:44;14.90;99.90
34873;DHT22;21084;51.098;14.506;2023-07-20T04:53:13;14.90;99.90
34873;DHT22;21084;51.098;14.506;2023-07-20T04:55:48;15.00;99.90
34873;DHT22;21084;51.098;14.506;2023-07-20T04:58:20;15.00;99.90
34873;DHT22;21084;51.098;14.506;2023-07-20T05:00:49;15.10;99.90
34873;DHT22;21084;51.098;14.506;2023-07-20T05:03:18;15.20;99.90
34873;DHT22;21084;51.098;14.506;2023-07-20T05:05:47;15.30;99.90
34873;DHT22;21084;51.098;14.506;2023-07-20T05:08:16;15.30;99.90
34873;DHT22;21084;51.098;14.506;2023-07-20T05:10:46;15.40;99.90
34873;DHT22;21084;51.098;14.506;2023-07-20T05:13:16;15.50;99.90
34873;DHT22;21084;51.098;14.506;2023-07-20T05:15:45;15.50;99.90
34873;DHT22;21084;51.098;14.506;2023-07-20T05:18:14;15.40;99.90
34873;DHT22;21084;51.098;14.506;2023-07-20T05:20:47;15.40;99.90
34873;DHT22;21084;51.098;14.506;2023-07-20T05:23:18;15.30;99.90
34873;DHT22;21084;51.098;14.506;2023-07-20T05:25:54;15.50;99.90
34873;DHT22;21084;51.098;14.506;2023-07-20T05:28:23;15.40;99.90
34873;DHT22;21084;51.098;14.506;2023-07-20T05:30:51;15.40;99.90
34873;DHT22;21084;51.098;14.506;2023-07-20T05:33:21;15.50;99.90
34873;DHT22;21084;51.098;14.506;2023-07-20T05:35:49;15.60;99.90
34873;DHT22;21084;51.098;14.506;2023-07-20T05:38:18;15.80;99.90
34873;DHT22;21084;51.098;14.506;2023-07-20T05:40:48;15.70;99.90
34873;DHT22;21084;51.098;14.506;2023-07-20T05:43:17;15.80;99.90
34873;DHT22;21084;51.098;14.506;2023-07-20T05:45:45;15.70;99.90
34873;DHT22;21084;51.098;14.506;2023-07-20T05:48:15;15.70;99.90
34873;DHT22;21084;51.098;14.506;2023-07-20T05:50:44;15.60;99.90
34873;DHT22;21084;51.098;14.506;2023-07-20T05:53:12;15.50;99.90
34873;DHT22;21084;51.098;14.506;2023-07-20T05:55:41;15.60;99.90
34873;DHT22;21084;51.098;14.506;2023-07-20T05:58:11;15.70;99.90
34873;DHT22;21084;51.098;14.506;2023-07-20T06:00:39;15.90;99.90
34873;DHT22;21084;51.098;14.506;2023-07-20T06:03:08;16.10;99.90
34873;DHT22;21084;51.098;14.506;2023-07-20T06:05:37;16.10;99.90
34873;DHT22;21084;51.098;14.506;2023-07-20T06:08:06;16.30;99.90
34873;DHT22;21084;51.098;14.506;2023-07-20T06:10:34;16.70;99.90
34873;DHT22;21084;51.098;14.506;2023-07-20T06:13:03;16.80;99.90
34873;DHT22;21084;51.098;14.506;2023-07-20T06:15:33;16.80;99.90
34873;DHT22;21084;51.098;14.506;2023-07-20T06:18:03;16.50;99.90
34873;DHT22;21084;51.098;14.506;2023-07-20T06:20:32;16.40;99.90
34873;DHT22;21084;51.098;14.506;2023-07-20T06:23:00;16.30;99.90
34873;DHT22;21084;51.098;14.506;2023-07-20T06:25:29;16.30;99.90
34873;DHT22;21084;51.098;14.506;2023-07-20T06:27:57;16.70;99.90
34873;DHT22;21084;51.098;14.506;2023-07-20T06:30:26;16.90;99.90
34873;DHT22;21084;51.098;14.506;2023-07-20T06:32:56;17.00;99.90
34873;DHT22;21084;51.098;14.506;2023-07-20T06:35:25;16.60;99.90
34873;DHT22;21084;51.098;14.506;2023-07-20T06:37:54;16.70;99.90
34873;DHT22;21084;51.098;14.506;2023-07-20T06:40:22;16.60;99.90
34873;DHT22;21084;51.098;14.506;2023-07-20T06:42:54;16.70;99.90
34873;DHT22;21084;51.098;14.506;2023-07-20T06:45:26;16.80;99.90
34873;DHT22;21084;51.098;14.506;2023-07-20T06:47:55;16.50;99.90
34873;DHT22;21084;51.098;14.506;2023-07-20T06:50:24;16.20;99.90
34873;DHT22;21084;51.098;14.506;2023-07-20T06:52:56;16.10;99.90
34873;DHT22;21084;51.098;14.506;2023-07-20T06:55:26;16.00;99.90
34873;DHT22;21084;51.098;14.506;2023-07-20T06:57:54;16.20;99.90
34873;DHT22;21084;51.098;14.506;2023-07-20T07:00:25;16.40;99.90
34873;DHT22;21084;51.098;14.506;2023-07-20T07:02:56;16.60;99.90
34873;DHT22;21084;51.098;14.506;2023-07-20T07:05:25;16.70;99.90
34873;DHT22;21084;51.098;14.506;2023-07-20T07:08:03;16.80;99.90
34873;DHT22;21084;51.098;14.506;2023-07-20T07:10:34;17.00;99.90
34873;DHT22;21084;51.098;14.506;2023-07-20T07:13:03;17.20;99.90
34873;DHT22;21084;51.098;14.506;2023-07-20T07:15:33;17.50;99.90
34873;DHT22;21084;51.098;14.506;2023-07-20T07:18:04;17.50;99.90
34873;DHT22;21084;51.098;14.506;2023-07-20T07:20:33;17.60;99.90
34873;DHT22;21084;51.098;14.506;2023-07-20T07:23:02;18.10;99.90
34873;DHT22;21084;51.098;14.506;2023-07-20T07:25:31;17.60;99.90
34873;DHT22;21084;51.098;14.506;2023-07-20T07:27:59;17.40;99.90
34873;DHT22;21084;51.098;14.506;2023-07-20T07:30:28;17.30;99.90
34873;DHT22;21084;51.098;14.506;2023-07-20T07:33:00;17.20;99.90
34873;DHT22;21084;51.098;14.506;2023-07-20T07:35:30;17.20;99.90
34873;DHT22;21084;51.098;14.506;2023-07-20T07:37:59;17.00;99.90
34873;DHT22;21084;51.098;14.506;2023-07-20T07:40:48;17.10;99.90
34873;DHT22;21084;51.098;14.506;2023-07-20T07:43:16;17.40;99.90
34873;DHT22;21084;51.098;14.506;2023-07-20T07:45:45;17.50;99.90
34873;DHT22;21084;51.098;14.506;2023-07-20T07:48:14;17.60;99.90
34873;DHT22;21084;51.098;14.506;2023-07-20T07:50:44;17.70;99.90
34873;DHT22;21084;51.098;14.506;2023-07-20T07:53:12;17.80;99.90
34873;DHT22;21084;51.098;14.506;2023-07-20T07:55:41;17.40;99.90
34873;DHT22;21084;51.098;14.506;2023-07-20T07:58:09;17.20;99.90
34873;DHT22;21084;51.098;14.506;2023-07-20T08:00:38;17.10;99.90
34873;DHT22;21084;51.098;14.506;2023-07-20T08:03:06;17.00;99.90
34873;DHT22;21084;51.098;14.506;2023-07-20T08:05:36;16.90;99.90
34873;DHT22;21084;51.098;14.506;2023-07-20T08:08:06;17.10;99.90
34873;DHT22;21084;51.098;14.506;2023-07-20T08:10:37;17.10;99.90
34873;DHT22;21084;51.098;14.506;2023-07-20T08:13:05;17.10;99.90
34873;DHT22;21084;51.098;14.506;2023-07-20T08:15:34;17.30;99.90
34873;DHT22;21084;51.098;14.506;2023-07-20T08:18:03;17.40;99.90
34873;DHT22;21084;51.098;14.506;2023-07-20T08:20:32;17.60;99.90
34873;DHT22;21084;51.098;14.506;2023-07-20T08:23:03;17.90;99.90
34873;DHT22;21084;51.098;14.506;2023-07-20T08:25:33;18.40;99.90
34873;DHT22;21084;51.098;14.506;2023-07-20T08:28:07;18.00;99.90
34873;DHT22;21084;51.098;14.506;2023-07-20T08:30:41;18.50;99.90
34873;DHT22;21084;51.098;14.506;2023-07-20T08:33:12;18.40;99.90
34873;DHT22;21084;51.098;14.506;2023-07-20T08:35:41;18.30;99.90
34873;DHT22;21084;51.098;14.506;2023-07-20T08:38:10;18.40;99.90
34873;DHT22;21084;51.098;14.506;2023-07-20T08:40:42;18.40;99.90
34873;DHT22;21084;51.098;14.506;2023-07-20T08:43:12;18.50;99.90
34873;DHT22;21084;51.098;14.506;2023-07-20T08:45:40;18.50;99.90
34873;DHT22;21084;51.098;14.506;2023-07-20T08:48:09;18.60;99.90
34873;DHT22;21084;51.098;14.506;2023-07-20T08:50:38;18.40;99.90
34873;DHT22;21084;51.098;14.506;2023-07-20T08:53:08;18.50;99.90
34873;DHT22;21084;51.098;14.506;2023-07-20T08:55:40;18.80;99.90
34873;DHT22;21084;51.098;14.506;2023-07-20T08:58:12;18.80;99.90
34873;DHT22;21084;51.098;14.506;2023-07-20T09:00:42;19.10;99.80
34873;DHT22;21084;51.098;14.506;2023-07-20T09:03:14;19.00;99.90
34873;DHT22;21084;51.098;14.506;2023-07-20T09:05:44;19.30;99.50
34873;DHT22;21084;51.098;14.506;2023-07-20T09:08:13;19.30;99.90
34873;DHT22;21084;51.098;14.506;2023-07-20T09:10:43;19.60;99.50
34873;DHT22;21084;51.098;14.506;2023-07-20T09:13:13;20.50;99.60
34873;DHT22;21084;51.098;14.506;2023-07-20T09:15:46;20.60;98.30
34873;DHT22;21084;51.098;14.506;2023-07-20T09:18:24;20.70;99.10
34873;DHT22;21084;51.098;14.506;2023-07-20T09:20:53;20.80;97.60
34873;DHT22;21084;51.098;14.506;2023-07-20T09:23:30;20.70;97.10
34873;DHT22;21084;51.098;14.506;2023-07-20T09:26:01;20.50;97.70
34873;DHT22;21084;51.098;14.506;2023-07-20T09:28:42;20.90;97.10
34873;DHT22;21084;51.098;14.506;2023-07-20T09:31:18;21.60;96.90
34873;DHT22;21084;51.098;14.506;2023-07-20T09:33:48;21.20;95.80
34873;DHT22;21084;51.098;14.506;2023-07-20T09:36:20;21.50;96.80
34873;DHT22;21084;51.098;14.506;2023-07-20T09:39:08;22.20;94.90
34873;DHT22;21084;51.098;14.506;2023-07-20T09:41:41;22.00;94.70
34873;DHT22;21084;51.098;14.506;2023-07-20T09:44:14;22.00;94.50
34873;DHT22;21084;51.098;14.506;2023-07-20T09:46:47;22.20;94.30
34873;DHT22;21084;51.098;14.506;2023-07-20T09:49:19;22.60;92.60
34873;DHT22;21084;51.098;14.506;2023-07-20T09:51:52;22.50;93.70
34873;DHT22;21084;51.098;14.506;2023-07-20T09:54:22;24.00;91.50
34873;DHT22;21084;51.098;14.506;2023-07-20T09:56:52;23.80;90.20
34873;DHT22;21084;51.098;14.506;2023-07-20T09:59:21;22.10;92.20
34873;DHT22;21084;51.098;14.506;2023-07-20T10:01:53;21.40;93.40
34873;DHT22;21084;51.098;14.506;2023-07-20T10:04:26;21.10;94.00
34873;DHT22;21084;51.098;14.506;2023-07-20T10:06:59;20.50;94.60
34873;DHT22;21084;51.098;14.506;2023-07-20T10:09:32;20.00;95.60
34873;DHT22;21084;51.098;14.506;2023-07-20T10:12:07;19.70;97.10
34873;DHT22;21084;51.098;14.506;2023-07-20T10:14:51;19.00;98.90
34873;DHT22;21084;51.098;14.506;2023-07-20T10:17:21;18.90;99.90
34873;DHT22;21084;51.098;14.506;2023-07-20T10:19:54;19.00;99.60
34873;DHT22;21084;51.098;14.506;2023-07-20T10:22:26;19.00;99.70
34873;DHT22;21084;51.098;14.506;2023-07-20T10:24:54;19.00;99.10
34873;DHT22;21084;51.098;14.506;2023-07-20T10:27:27;19.80;99.90
34873;DHT22;21084;51.098;14.506;2023-07-20T10:29:57;20.70;98.10
34873;DHT22;21084;51.098;14.506;2023-07-20T10:32:27;21.70;97.30
34873;DHT22;21084;51.098;14.506;2023-07-20T10:34:57;22.80;95.10
34873;DHT22;21084;51.098;14.506;2023-07-20T10:37:49;22.30;94.50
34873;DHT22;21084;51.098;14.506;2023-07-20T10:40:28;21.90;94.40
34873;DHT22;21084;51.098;14.506;2023-07-20T10:43:00;22.10;94.40
34873;DHT22;21084;51.098;14.506;2023-07-20T10:45:47;22.60;93.80
34873;DHT22;21084;51.098;14.506;2023-07-20T10:48:18;22.40;92.90
34873;DHT22;21084;51.098;14.506;2023-07-20T10:51:14;21.80;92.10
34873;DHT22;21084;51.098;14.506;2023-07-20T10:53:48;21.40;93.70
34873;DHT22;21084;51.098;14.506;2023-07-20T10:56:20;21.00;94.10
34873;DHT22;21084;51.098;14.506;2023-07-20T10:58:57;20.80;93.90
34873;DHT22;21084;51.098;14.506;2023-07-20T11:01:28;20.80;94.80
34873;DHT22;21084;51.098;14.506;2023-07-20T11:04:00;20.00;95.10
34873;DHT22;21084;51.098;14.506;2023-07-20T11:06:33;19.60;95.40
34873;DHT22;21084;51.098;14.506;2023-07-20T11:09:09;19.50;95.40
34873;DHT22;21084;51.098;14.506;2023-07-20T11:11:43;19.30;95.50
34873;DHT22;21084;51.098;14.506;2023-07-20T11:14:22;19.40;96.20
34873;DHT22;21084;51.098;14.506;2023-07-20T11:16:52;19.20;96.30
34873;DHT22;21084;51.098;14.506;2023-07-20T11:19:24;18.90;97.20
34873;DHT22;21084;51.098;14.506;2023-07-20T11:21:57;18.50;98.90
34873;DHT22;21084;51.098;14.506;2023-07-20T11:24:31;17.80;99.90
34873;DHT22;21084;51.098;14.506;2023-07-20T11:27:00;17.60;99.90
34873;DHT22;21084;51.098;14.506;2023-07-20T11:29:31;17.40;99.90
34873;DHT22;21084;51.098;14.506;2023-07-20T11:32:01;17.20;99.90
34873;DHT22;21084;51.098;14.506;2023-07-20T11:34:33;17.30;99.70
34873;DHT22;21084;51.098;14.506;2023-07-20T11:37:02;17.60;99.90
34873;DHT22;21084;51.098;14.506;2023-07-20T11:39:34;17.80;99.20
34873;DHT22;21084;51.098;14.506;2023-07-20T11:42:03;18.30;99.90
34873;DHT22;21084;51.098;14.506;2023-07-20T11:44:34;19.30;99.10
34873;DHT22;21084;51.098;14.506;2023-07-20T11:47:04;20.10;97.20
34873;DHT22;21084;51.098;14.506;2023-07-20T11:49:37;19.70;96.10
34873;DHT22;21084;51.098;14.506;2023-07-20T11:52:07;20.00;95.80
34873;DHT22;21084;51.098;14.506;2023-07-20T11:54:38;20.50;94.40
34873;DHT22;21084;51.098;14.506;2023-07-20T11:57:16;20.90;93.60
34873;DHT22;21084;51.098;14.506;2023-07-20T11:59:54;22.40;95.10
34873;DHT22;21084;51.098;14.506;2023-07-20T12:02:26;22.60;92.60
34873;DHT22;21084;51.098;14.506;2023-07-20T12:04:56;22.50;92.60
34873;DHT22;21084;51.098;14.506;2023-07-20T12:07:27;23.60;92.00
34873;DHT22;21084;51.098;14.506;2023-07-20T12:10:07;22.70;90.50
34873;DHT22;21084;51.098;14.506;2023-07-20T12:12:38;23.00;90.20
34873;DHT22;21084;51.098;14.506;2023-07-20T12:15:25;22.80;87.80
34873;DHT22;21084;51.098;14.506;2023-07-20T12:17:58;23.50;88.50
34873;DHT22;21084;51.098;14.506;2023-07-20T12:20:29;24.80;89.40
34873;DHT22;21084;51.098;14.506;2023-07-20T12:23:01;25.80;81.30
34873;DHT22;21084;51.098;14.506;2023-07-20T12:25:34;25.20;82.10
34873;DHT22;21084;51.098;14.506;2023-07-20T12:28:04;24.50;81.20
34873;DHT22;21084;51.098;14.506;2023-07-20T12:30:35;24.50;80.20
34873;DHT22;21084;51.098;14.506;2023-07-20T12:33:05;24.10;81.00
34873;DHT22;21084;51.098;14.506;2023-07-20T12:35:34;24.10;87.70
34873;DHT22;21084;51.098;14.506;2023-07-20T12:38:03;24.40;81.60
34873;DHT22;21084;51.098;14.506;2023-07-20T12:40:34;22.50;86.60
34873;DHT22;21084;51.098;14.506;2023-07-20T12:43:03;21.90;87.70
34873;DHT22;21084;51.098;14.506;2023-07-20T12:45:35;22.10;90.40
34873;DHT22;21084;51.098;14.506;2023-07-20T12:48:04;22.40;88.40
34873;DHT22;21084;51.098;14.506;2023-07-20T12:50:33;21.70;88.90
34873;DHT22;21084;51.098;14.506;2023-07-20T12:53:02;22.40;90.50
34873;DHT22;21084;51.098;14.506;2023-07-20T12:55:32;23.30;85.80
34873;DHT22;21084;51.098;14.506;2023-07-20T12:58:00;22.50;86.60
34873;DHT22;21084;51.098;14.506;2023-07-20T13:00:29;22.40;87.50
34873;DHT22;21084;51.098;14.506;2023-07-20T13:02:59;23.20;86.80
34873;DHT22;21084;51.098;14.506;2023-07-20T13:05:32;24.30;85.40
34873;DHT22;21084;51.098;14.506;2023-07-20T13:08:05;23.40;84.70
34873;DHT22;21084;51.098;14.506;2023-07-20T13:10:36;22.30;86.60
34873;DHT22;21084;51.098;14.506;2023-07-20T13:13:06;22.00;87.90
34873;DHT22;21084;51.098;14.506;2023-07-20T13:15:41;21.70;88.00
34873;DHT22;21084;51.098;14.506;2023-07-20T13:18:11;21.00;91.70
34873;DHT22;21084;51.098;14.506;2023-07-20T13:20:43;19.90;94.20
34873;DHT22;21084;51.098;14.506;2023-07-20T13:23:12;19.30;95.30
34873;DHT22;21084;51.098;14.506;2023-07-20T13:25:41;19.40;96.20
34873;DHT22;21084;51.098;14.506;2023-07-20T13:28:09;19.30;97.10
34873;DHT22;21084;51.098;14.506;2023-07-20T13:30:38;19.70;97.20
34873;DHT22;21084;51.098;14.506;2023-07-20T13:33:07;19.90;96.60
34873;DHT22;21084;51.098;14.506;2023-07-20T13:35:41;19.80;95.20
34873;DHT22;21084;51.098;14.506;2023-07-20T13:38:13;19.90;95.70
34873;DHT22;21084;51.098;14.506;2023-07-20T13:40:41;19.90;95.30
34873;DHT22;21084;51.098;14.506;2023-07-20T13:43:10;20.30;95.30
34873;DHT22;21084;51.098;14.506;2023-07-20T13:45:39;20.20;95.70
34873;DHT22;21084;51.098;14.506;2023-07-20T13:48:08;20.40;95.20
34873;DHT22;21084;51.098;14.506;2023-07-20T13:50:36;20.50;95.10
34873;DHT22;21084;51.098;14.506;2023-07-20T13:53:09;20.70;95.00
34873;DHT22;21084;51.098;14.506;2023-07-20T13:55:41;20.50;95.00
34873;DHT22;21084;51.098;14.506;2023-07-20T13:58:13;21.00;95.80
34873;DHT22;21084;51.098;14.506;2023-07-20T14:00:42;21.00;94.20
34873;DHT22;21084;51.098;14.506;2023-07-20T14:03:11;20.70;94.80
34873;DHT22;21084;51.098;14.506;2023-07-20T14:05:42;20.50;94.40
34873;DHT22;21084;51.098;14.506;2023-07-20T14:08:16;20.50;95.20
34873;DHT22;21084;51.098;14.506;2023-07-20T14:10:45;20.30;93.90
34873;DHT22;21084;51.098;14.506;2023-07-20T14:13:16;19.90;92.70
34873;DHT22;21084;51.098;14.506;2023-07-20T14:15:45;19.40;93.10
34873;DHT22;21084;51.098;14.506;2023-07-20T14:18:14;19.20;92.70
34873;DHT22;21084;51.098;14.506;2023-07-20T14:20:46;19.20;93.20
34873;DHT22;21084;51.098;14.506;2023-07-20T14:23:17;19.30;93.50
34873;DHT22;21084;51.098;14.506;2023-07-20T14:25:45;19.20;93.30
34873;DHT22;21084;51.098;14.506;2023-07-20T14:28:15;19.50;93.60
34873;DHT22;21084;51.098;14.506;2023-07-20T14:30:43;19.50;93.30
34873;DHT22;21084;51.098;14.506;2023-07-20T14:33:12;19.60;93.70
34873;DHT22;21084;51.098;14.506;2023-07-20T14:35:41;19.70;93.00
34873;DHT22;21084;51.098;14.506;2023-07-20T14:38:10;19.80;93.40
34873;DHT22;21084;51.098;14.506;2023-07-20T14:40:40;19.80;93.00
34873;DHT22;21084;51.098;14.506;2023-07-20T14:43:09;19.90;93.70
34873;DHT22;21084;51.098;14.506;2023-07-20T14:45:38;19.90;92.60
34873;DHT22;21084;51.098;14.506;2023-07-20T14:48:07;19.80;92.00
34873;DHT22;21084;51.098;14.506;2023-07-20T14:50:36;19.70;92.00
34873;DHT22;21084;51.098;14.506;2023-07-20T14:53:05;19.90;91.90
34873;DHT22;21084;51.098;14.506;2023-07-20T14:55:34;20.30;91.80
34873;DHT22;21084;51.098;14.506;2023-07-20T14:58:04;20.50;91.20
34873;DHT22;21084;51.098;14.506;2023-07-20T15:00:33;20.60;91.40
34873;DHT22;21084;51.098;14.506;2023-07-20T15:03:02;20.90;91.70
34873;DHT22;21084;51.098;14.506;2023-07-20T15:05:32;20.60;92.10
34873;DHT22;21084;51.098;14.506;2023-07-20T15:08:03;20.30;91.90
34873;DHT22;21084;51.098;14.506;2023-07-20T15:10:33;20.30;92.20
34873;DHT22;21084;51.098;14.506;2023-07-20T15:13:02;20.10;92.90
34873;DHT22;21084;51.098;14.506;2023-07-20T15:15:33;19.70;93.30
34873;DHT22;21084;51.098;14.506;2023-07-20T15:18:02;19.70;93.00
34873;DHT22;21084;51.098;14.506;2023-07-20T15:20:31;19.40;93.00
34873;DHT22;21084;51.098;14.506;2023-07-20T15:23:00;19.20;93.50
34873;DHT22;21084;51.098;14.506;2023-07-20T15:25:29;19.30;93.10
34873;DHT22;21084;51.098;14.506;2023-07-20T15:27:58;19.50;93.40
34873;DHT22;21084;51.098;14.506;2023-07-20T15:30:27;19.60;93.30
34873;DHT22;21084;51.098;14.506;2023-07-20T15:33:00;20.00;93.10
34873;DHT22;21084;51.098;14.506;2023-07-20T15:35:36;20.10;92.70